createdAt,value
2018-12-29T00:00:23.787Z,39.09
2018-12-29T00:01:23.772Z,39.18
2018-12-29T00:02:23.758Z,38.81
2018-12-29T00:03:23.734Z,38.71
2018-12-29T00:04:23.714Z,38.33
2018-12-29T00:05:23.702Z,37.67
2018-12-29T00:06:23.683Z,37.19
2018-12-29T00:07:23.662Z,37.29
2018-12-29T00:08:23.648Z,36.72
2018-12-29T00:09:23.627Z,36.72
2018-12-29T00:10:23.612Z,36.63
2018-12-29T00:11:23.601Z,36.54
2018-12-29T00:12:23.581Z,36.54
2018-12-29T00:13:23.560Z,36.54
2018-12-29T00:14:23.623Z,36.44
2018-12-29T00:15:23.528Z,37.19
2018-12-29T00:16:23.506Z,37.29
2018-12-29T00:17:23.490Z,37.19
2018-12-29T00:18:23.470Z,37.29
2018-12-29T00:19:23.457Z,37.01
2018-12-29T00:20:23.435Z,36.82
2018-12-29T00:21:23.427Z,36.72
2018-12-29T00:22:23.399Z,36.72
2018-12-29T00:23:23.386Z,36.54
2018-12-29T00:24:23.367Z,36.82
2018-12-29T00:25:23.347Z,36.91
2018-12-29T00:26:23.335Z,37.48
2018-12-29T00:27:23.314Z,37.38
2018-12-29T00:28:23.294Z,36.91
2018-12-29T00:29:23.283Z,36.63
2018-12-29T00:30:23.263Z,36.25
2018-12-29T00:31:23.244Z,36.25
2018-12-29T00:32:22.976Z,36.35
2018-12-29T00:33:23.221Z,36.35
2018-12-29T00:34:23.193Z,36.44
2018-12-29T00:35:23.173Z,36.06
2018-12-29T00:36:23.156Z,36.25
2018-12-29T00:37:23.147Z,35.68
2018-12-29T00:38:22.872Z,35.68
2018-12-29T00:39:23.143Z,35.68
2018-12-29T00:40:23.085Z,35.39
2018-12-29T00:41:23.069Z,35.39
2018-12-29T00:42:23.054Z,35.49
2018-12-29T00:43:23.035Z,35.21
2018-12-29T00:44:23.013Z,34.64
2018-12-29T00:45:23.003Z,34.36
2018-12-29T00:46:22.982Z,34.36
2018-12-29T00:47:22.965Z,34.17
2018-12-29T00:48:22.943Z,33.98
2018-12-29T00:49:22.929Z,34.26
2018-12-29T00:50:22.910Z,34.36
2018-12-29T00:51:22.643Z,34.36
2018-12-29T00:52:22.873Z,33.88
2018-12-29T00:53:22.856Z,33.6
2018-12-29T00:54:22.838Z,33.79
2018-12-29T00:55:22.826Z,33.69
2018-12-29T00:56:22.804Z,33.41
2018-12-29T00:57:22.786Z,33.5
2018-12-29T00:58:22.805Z,33.88
2018-12-29T00:59:22.748Z,33.79
2018-12-29T01:00:22.731Z,34.55
2018-12-29T01:01:22.715Z,34.26
2018-12-29T01:02:22.709Z,33.79
2018-12-29T01:03:22.684Z,33.69
2018-12-29T01:04:22.662Z,33.79
2018-12-29T01:05:22.646Z,33.69
2018-12-29T01:06:22.628Z,33.69
2018-12-29T01:07:22.609Z,33.5
2018-12-29T01:08:22.596Z,33.69
2018-12-29T01:09:22.329Z,33.88
2018-12-29T01:10:22.557Z,33.5
2018-12-29T01:11:22.547Z,33.5
2018-12-29T01:12:22.519Z,33.98
2018-12-29T01:13:22.506Z,34.07
2018-12-29T01:14:22.499Z,34.26
2018-12-29T01:15:22.470Z,34.17
2018-12-29T01:16:22.451Z,33.88
2018-12-29T01:17:22.435Z,33.79
2018-12-29T01:18:22.418Z,33.69
2018-12-29T01:19:22.402Z,33.6
2018-12-29T01:20:22.384Z,33.5
2018-12-29T01:21:22.360Z,34.07
2018-12-29T01:22:22.343Z,34.26
2018-12-29T01:23:22.326Z,34.26
2018-12-29T01:24:22.311Z,33.88
2018-12-29T01:25:22.294Z,33.69
2018-12-29T01:26:22.272Z,33.6
2018-12-29T01:27:22.260Z,33.31
2018-12-29T01:28:23.029Z,33.31
2018-12-29T01:29:22.218Z,33.22
2018-12-29T01:30:22.210Z,33.69
2018-12-29T01:31:22.227Z,34.07
2018-12-29T01:32:22.165Z,33.98
2018-12-29T01:33:22.154Z,33.6
2018-12-29T01:34:22.132Z,33.31
2018-12-29T01:35:22.120Z,32.93
2018-12-29T01:36:22.099Z,33.12
2018-12-29T01:37:22.097Z,32.75
2018-12-29T01:38:22.061Z,32.65
2018-12-29T01:39:22.047Z,32.84
2018-12-29T01:40:22.030Z,33.03
2018-12-29T01:41:22.012Z,32.84
2018-12-29T01:42:21.988Z,33.12
2018-12-29T01:43:21.991Z,33.12
2018-12-29T01:44:21.954Z,32.65
2018-12-29T01:45:21.943Z,32.56
2018-12-29T01:46:21.929Z,32.28
2018-12-29T01:47:21.909Z,32.65
2018-12-29T01:48:21.886Z,32.46
2018-12-29T01:49:21.873Z,32.84
2018-12-29T01:50:21.856Z,32.54
2018-12-29T01:51:21.832Z,32.84
2018-12-29T01:52:21.817Z,32.82
2018-12-29T01:53:21.798Z,32.82
2018-12-29T01:54:21.783Z,32.92
2018-12-29T01:55:21.515Z,33.03
2018-12-29T01:56:21.745Z,32.73
2018-12-29T01:57:21.723Z,32.82
2018-12-29T01:58:21.711Z,32.26
2018-12-29T01:59:21.446Z,32.18
2018-12-29T02:00:21.675Z,31.8
2018-12-29T02:01:21.673Z,31.99
2018-12-29T02:02:21.640Z,31.5
2018-12-29T02:03:21.632Z,30.95
2018-12-29T02:04:21.598Z,30.95
2018-12-29T02:05:21.584Z,30.95
2018-12-29T02:06:21.569Z,30.18
2018-12-29T02:07:21.307Z,30.29
2018-12-29T02:08:21.531Z,30.47
2018-12-29T02:09:21.516Z,30.55
2018-12-29T02:10:21.497Z,30.57
2018-12-29T02:11:21.476Z,29.61
2018-12-29T02:12:21.458Z,29.34
2018-12-29T02:13:21.193Z,29.42
2018-12-29T02:14:21.426Z,29.43
2018-12-29T02:15:27.183Z,28.95
2018-12-29T02:16:21.390Z,28.96
2018-12-29T02:17:21.385Z,28.85
2018-12-29T02:18:21.351Z,28.85
2018-12-29T02:19:21.334Z,28.28
2018-12-29T02:20:21.316Z,28.2
2018-12-29T02:21:21.301Z,27.91
2018-12-29T02:22:21.283Z,27.92
2018-12-29T02:23:21.266Z,27.83
2018-12-29T02:24:21.246Z,27.91
2018-12-29T02:25:21.227Z,27.62
2018-12-29T02:26:20.964Z,27.54
2018-12-29T02:27:21.197Z,27.72
2018-12-29T02:28:21.176Z,27.83
2018-12-29T02:29:21.155Z,27.92
2018-12-29T02:30:21.138Z,28
2018-12-29T02:31:21.127Z,28.02
2018-12-29T02:32:21.106Z,28.09
2018-12-29T02:33:21.091Z,28.02
2018-12-29T02:34:21.069Z,27.72
2018-12-29T02:35:21.054Z,28.57
2018-12-29T02:36:21.035Z,28.95
2018-12-29T02:37:21.016Z,29.42
2018-12-29T02:38:21.004Z,29.33
2018-12-29T02:39:20.978Z,29.33
2018-12-29T02:40:20.977Z,29.33
2018-12-29T02:41:20.949Z,29.04
2018-12-29T02:42:20.935Z,28.95
2018-12-29T02:43:20.910Z,29.24
2018-12-29T02:44:20.643Z,29.23
2018-12-29T02:45:20.872Z,29.14
2018-12-29T02:46:20.863Z,29.71
2018-12-29T02:47:20.838Z,29.8
2018-12-29T02:48:20.848Z,29.52
2018-12-29T02:49:20.806Z,29.23
2018-12-29T02:50:20.822Z,29.33
2018-12-29T02:51:20.777Z,29.14
2018-12-29T02:52:20.748Z,29.99
2018-12-29T02:53:20.734Z,29.8
2018-12-29T02:54:20.716Z,30.36
2018-12-29T02:55:20.696Z,30.46
2018-12-29T02:56:20.680Z,30.36
2018-12-29T02:57:20.664Z,30.18
2018-12-29T02:58:20.644Z,30.27
2018-12-29T02:59:20.626Z,30.46
2018-12-29T03:00:20.615Z,30.36
2018-12-29T03:01:20.595Z,30.46
2018-12-29T03:02:20.575Z,30.46
2018-12-29T03:03:20.558Z,30.36
2018-12-29T03:04:20.535Z,30.55
2018-12-29T03:05:20.643Z,31.12
2018-12-29T03:06:20.504Z,31.22
2018-12-29T03:07:20.490Z,31.88
2018-12-29T03:08:20.220Z,31.88
2018-12-29T03:09:20.448Z,31.98
2018-12-29T03:10:20.432Z,31.88
2018-12-29T03:11:20.414Z,32.07
2018-12-29T03:12:20.401Z,32.35
2018-12-29T03:13:20.449Z,32.73
2018-12-29T03:14:20.363Z,32.92
2018-12-29T03:15:20.341Z,32.82
2018-12-29T03:16:20.331Z,32.73
2018-12-29T03:17:20.310Z,32.64
2018-12-29T03:18:20.296Z,32.82
2018-12-29T03:19:20.276Z,33.11
2018-12-29T03:20:20.263Z,33.39
2018-12-29T03:21:20.244Z,33.3
2018-12-29T03:22:20.216Z,33.39
2018-12-29T03:23:20.202Z,33.49
2018-12-29T03:24:20.192Z,33.87
2018-12-29T03:25:20.166Z,33.96
2018-12-29T03:26:20.150Z,34.34
2018-12-29T03:27:19.882Z,35.38
2018-12-29T03:28:20.113Z,35.38
2018-12-29T03:29:20.098Z,35.57
2018-12-29T03:30:20.101Z,35.85
2018-12-29T03:31:20.073Z,36.14
2018-12-29T03:32:20.052Z,36.14
2018-12-29T03:33:20.037Z,36.04
2018-12-29T03:34:20.089Z,36.33
2018-12-29T03:35:19.997Z,36.42
2018-12-29T03:36:19.973Z,37.08
2018-12-29T03:37:19.717Z,37.46
2018-12-29T03:38:19.938Z,38.12
2018-12-29T03:39:19.925Z,38.41
2018-12-29T03:40:19.651Z,38.41
2018-12-29T03:41:19.884Z,38.5
2018-12-29T03:42:19.867Z,38.69
2018-12-29T03:43:19.846Z,38.69
2018-12-29T03:44:19.835Z,38.69
2018-12-29T03:45:19.810Z,38.69
2018-12-29T03:46:19.799Z,38.79
2018-12-29T03:47:19.782Z,38.6
2018-12-29T03:48:19.760Z,38.69
2018-12-29T03:49:19.743Z,38.69
2018-12-29T03:50:19.724Z,38.6
2018-12-29T03:51:19.707Z,38.69
2018-12-29T03:52:19.692Z,38.22
2018-12-29T03:53:19.674Z,38.5
2018-12-29T03:54:19.656Z,38.6
2018-12-29T03:55:19.632Z,38.69
2018-12-29T03:56:19.628Z,39.36
2018-12-29T03:57:19.603Z,39.64
2018-12-29T03:58:19.587Z,40.39
2018-12-29T03:59:19.570Z,40.39
2018-12-29T04:00:19.549Z,39.73
2018-12-29T04:01:19.543Z,39.83
2018-12-29T04:02:19.628Z,40.01
2018-12-29T04:03:19.505Z,40.01
2018-12-29T04:04:19.479Z,40.11
2018-12-29T04:05:19.457Z,40.58
2018-12-29T04:06:19.445Z,40.68
2018-12-29T04:07:19.179Z,40.68
2018-12-29T04:08:19.157Z,40.58
2018-12-29T04:09:19.495Z,40.77
2018-12-29T04:10:19.373Z,40.96
2018-12-29T04:11:19.354Z,40.87
2018-12-29T04:12:19.335Z,40.87
2018-12-29T04:13:19.319Z,40.2
2018-12-29T04:14:19.298Z,40.11
2018-12-29T04:15:19.287Z,40.58
2018-12-29T04:16:19.271Z,40.96
2018-12-29T04:17:19.249Z,41.34
2018-12-29T04:18:19.231Z,41.15
2018-12-29T04:19:19.215Z,41.63
2018-12-29T04:20:19.196Z,42.76
2018-12-29T04:21:19.178Z,42.57
2018-12-29T04:22:18.922Z,42.95
2018-12-29T04:23:19.143Z,43.14
2018-12-29T04:24:19.121Z,42.95
2018-12-29T04:25:19.106Z,43.23
2018-12-29T04:26:19.087Z,44.56
2018-12-29T04:27:19.067Z,45.12
2018-12-29T04:28:19.053Z,44.56
2018-12-29T04:29:19.035Z,44.84
2018-12-29T04:30:19.015Z,44.65
2018-12-29T04:31:18.998Z,44.56
2018-12-29T04:32:18.980Z,44.74
2018-12-29T04:33:18.966Z,44.93
2018-12-29T04:34:18.959Z,44.46
2018-12-29T04:35:18.929Z,44.27
2018-12-29T04:36:18.664Z,43.9
2018-12-29T04:37:18.644Z,44.27
2018-12-29T04:38:18.875Z,44.18
2018-12-29T04:39:18.853Z,44.46
2018-12-29T04:40:18.840Z,44.18
2018-12-29T04:41:18.823Z,44.37
2018-12-29T04:42:18.803Z,44.27
2018-12-29T04:43:18.539Z,44.09
2018-12-29T04:44:18.768Z,43.99
2018-12-29T04:45:18.750Z,44.37
2018-12-29T04:46:18.738Z,44.27
2018-12-29T04:47:18.787Z,44.56
2018-12-29T04:48:18.697Z,44.56
2018-12-29T04:49:18.679Z,44.18
2018-12-29T04:50:18.414Z,44.18
2018-12-29T04:51:18.644Z,43.9
2018-12-29T04:52:18.628Z,45.03
2018-12-29T04:53:18.609Z,44.46
2018-12-29T04:54:18.340Z,44.46
2018-12-29T04:55:18.571Z,44.46
2018-12-29T04:56:18.549Z,44.46
2018-12-29T04:57:18.540Z,43.99
2018-12-29T04:58:18.520Z,44.37
2018-12-29T04:59:18.497Z,43.9
2018-12-29T05:00:18.480Z,43.61
2018-12-29T05:01:18.462Z,43.14
2018-12-29T05:02:18.452Z,42.38
2018-12-29T05:03:18.426Z,42.57
2018-12-29T05:04:18.423Z,42.57
2018-12-29T05:05:18.394Z,42.57
2018-12-29T05:06:18.371Z,42.47
2018-12-29T05:07:18.355Z,42.38
2018-12-29T05:08:18.337Z,42.76
2018-12-29T05:09:18.072Z,42.66
2018-12-29T05:10:18.299Z,42.57
2018-12-29T05:11:18.285Z,42.66
2018-12-29T05:12:18.019Z,42.57
2018-12-29T05:13:17.999Z,42.57
2018-12-29T05:14:18.226Z,42.57
2018-12-29T05:15:18.208Z,42.57
2018-12-29T05:16:18.192Z,42.57
2018-12-29T05:17:18.174Z,43.14
2018-12-29T05:18:18.154Z,43.14
2018-12-29T05:19:18.139Z,42.95
2018-12-29T05:20:18.126Z,43.52
2018-12-29T05:21:18.106Z,43.33
2018-12-29T05:22:17.837Z,42.85
2018-12-29T05:23:18.064Z,43.52
2018-12-29T05:24:18.050Z,43.71
2018-12-29T05:25:18.032Z,43.99
2018-12-29T05:26:17.767Z,44.09
2018-12-29T05:27:17.998Z,43.99
2018-12-29T05:28:17.978Z,44.56
2018-12-29T05:29:17.956Z,45.12
2018-12-29T05:30:17.694Z,45.5
2018-12-29T05:31:18.080Z,45.69
2018-12-29T05:32:17.902Z,46.83
2018-12-29T05:33:17.886Z,48.34
2018-12-29T05:34:17.622Z,49.38
2018-12-29T05:35:17.854Z,49.66
2018-12-29T05:36:17.839Z,50.33
2018-12-29T05:37:17.813Z,50.04
2018-12-29T05:38:17.799Z,50.71
2018-12-29T05:39:17.783Z,51.09
2018-12-29T05:40:17.760Z,51.46
2018-12-29T05:41:17.744Z,51.93
2018-12-29T05:42:17.726Z,51.75
2018-12-29T05:43:17.710Z,52.03
2018-12-29T05:44:17.693Z,51.65
2018-12-29T05:45:17.671Z,51.09
2018-12-29T05:46:22.907Z,50.52
2018-12-29T05:47:17.637Z,50.14
2018-12-29T05:48:17.620Z,49.57
2018-12-29T05:49:17.600Z,49.29
2018-12-29T05:50:17.580Z,48.91
2018-12-29T05:51:17.562Z,48.63
2018-12-29T05:52:17.547Z,47.68
2018-12-29T05:53:17.526Z,47.2
2018-12-29T05:54:17.510Z,47.56
2018-12-29T05:55:17.491Z,47.39
2018-12-29T05:56:17.897Z,46.73
2018-12-29T05:57:17.461Z,46.17
2018-12-29T05:58:17.438Z,46.36
2018-12-29T05:59:17.418Z,46.52
2018-12-29T06:00:17.403Z,46.45
2018-12-29T06:01:17.384Z,46.17
2018-12-29T06:02:17.364Z,46.33
2018-12-29T06:03:17.345Z,46.36
2018-12-29T06:04:17.328Z,47.3
2018-12-29T06:05:17.306Z,47.58
2018-12-29T06:06:17.291Z,47.58
2018-12-29T06:07:17.278Z,47.58
2018-12-29T06:08:17.256Z,47.39
2018-12-29T06:09:17.242Z,46.92
2018-12-29T06:10:17.214Z,46.55
2018-12-29T06:11:17.197Z,46.64
2018-12-29T06:12:17.184Z,46.73
2018-12-29T06:13:17.163Z,46.92
2018-12-29T06:14:17.146Z,47.2
2018-12-29T06:15:17.126Z,47.28
2018-12-29T06:16:17.109Z,47.49
2018-12-29T06:17:17.090Z,46.8
2018-12-29T06:18:16.824Z,46.42
2018-12-29T06:19:16.807Z,46.73
2018-12-29T06:20:17.033Z,47.58
2018-12-29T06:21:17.018Z,47.37
2018-12-29T06:22:17.001Z,47.75
2018-12-29T06:23:16.978Z,48.6
2018-12-29T06:24:16.966Z,48.97
2018-12-29T06:25:16.947Z,49.73
2018-12-29T06:26:16.926Z,50.11
2018-12-29T06:27:16.905Z,50.59
2018-12-29T06:28:16.887Z,50.78
2018-12-29T06:29:16.871Z,51.15
2018-12-29T06:30:16.606Z,51.62
2018-12-29T06:31:16.834Z,51.34
2018-12-29T06:32:16.816Z,51.15
2018-12-29T06:33:16.796Z,51.25
2018-12-29T06:34:16.776Z,52.38
2018-12-29T06:35:17.819Z,51.81
2018-12-29T06:36:16.741Z,52.19
2018-12-29T06:37:16.725Z,52
2018-12-29T06:38:16.705Z,51.53
2018-12-29T06:39:16.688Z,52
2018-12-29T06:40:16.684Z,51.15
2018-12-29T06:41:16.647Z,51.15
2018-12-29T06:42:16.630Z,51.06
2018-12-29T06:43:16.609Z,52.29
2018-12-29T06:44:16.594Z,52.29
2018-12-29T06:45:16.578Z,51.81
2018-12-29T06:46:16.554Z,51.53
2018-12-29T06:47:16.536Z,51.62
2018-12-29T06:48:16.270Z,51.34
2018-12-29T06:49:16.505Z,51.06
2018-12-29T06:50:16.486Z,50.87
2018-12-29T06:51:16.469Z,50.96
2018-12-29T06:52:16.448Z,50.78
2018-12-29T06:53:16.179Z,50.49
2018-12-29T06:54:16.408Z,50.3
2018-12-29T06:55:16.392Z,49.45
2018-12-29T06:56:16.123Z,49.54
2018-12-29T06:57:16.353Z,49.54
2018-12-29T06:58:16.337Z,49.92
2018-12-29T06:59:16.321Z,50.11
2018-12-29T07:00:16.296Z,50.02
2018-12-29T07:01:16.277Z,49.64
2018-12-29T07:02:16.287Z,49.54
2018-12-29T07:03:16.245Z,48.88
2018-12-29T07:04:16.226Z,48.6
2018-12-29T07:05:16.209Z,48.5
2018-12-29T07:06:16.191Z,48.6
2018-12-29T07:07:15.920Z,48.5
2018-12-29T07:08:16.239Z,48.88
2018-12-29T07:09:15.891Z,48.69
2018-12-29T07:10:16.120Z,48.69
2018-12-29T07:11:16.095Z,48.6
2018-12-29T07:12:15.865Z,48.69
2018-12-29T07:13:16.055Z,48.79
2018-12-29T07:14:15.793Z,48.5
2018-12-29T07:15:16.018Z,48.6
2018-12-29T07:16:15.756Z,47.28
2018-12-29T07:17:15.991Z,47.18
2018-12-29T07:18:15.969Z,46.42
2018-12-29T07:19:15.948Z,46.33
2018-12-29T07:20:15.929Z,46.14
2018-12-29T07:21:15.910Z,46.36
2018-12-29T07:22:15.894Z,46.23
2018-12-29T07:23:15.878Z,46.33
2018-12-29T07:24:15.859Z,46.64
2018-12-29T07:25:15.836Z,47.49
2018-12-29T07:26:15.818Z,47.37
2018-12-29T07:27:15.798Z,47.58
2018-12-29T07:28:15.790Z,47.77
2018-12-29T07:29:15.772Z,47.85
2018-12-29T07:30:15.749Z,48.25
2018-12-29T07:31:15.732Z,48.53
2018-12-29T07:32:15.712Z,48.63
2018-12-29T07:33:15.690Z,48.25
2018-12-29T07:34:15.677Z,48.03
2018-12-29T07:35:16.811Z,47.77
2018-12-29T07:36:15.636Z,47.77
2018-12-29T07:37:15.620Z,47.77
2018-12-29T07:38:15.603Z,48.15
2018-12-29T07:39:15.587Z,48.44
2018-12-29T07:40:15.564Z,48.53
2018-12-29T07:41:15.543Z,48.53
2018-12-29T07:42:15.287Z,49.19
2018-12-29T07:43:15.507Z,49.76
2018-12-29T07:44:15.487Z,50.04
2018-12-29T07:45:15.471Z,49.95
2018-12-29T07:46:15.455Z,50.14
2018-12-29T07:47:15.188Z,50.23
2018-12-29T07:48:15.865Z,50.04
2018-12-29T07:49:15.405Z,49.85
2018-12-29T07:50:15.380Z,49.85
2018-12-29T07:51:15.362Z,50.14
2018-12-29T07:52:15.346Z,49.66
2018-12-29T07:53:15.323Z,49.29
2018-12-29T07:54:15.309Z,49.01
2018-12-29T07:55:15.289Z,48.53
2018-12-29T07:56:15.269Z,48.44
2018-12-29T07:57:15.254Z,48.72
2018-12-29T07:58:14.987Z,49.48
2018-12-29T07:59:15.221Z,49.85
2018-12-29T08:00:15.198Z,49.76
2018-12-29T08:01:15.175Z,49.66
2018-12-29T08:02:15.161Z,49.85
2018-12-29T08:03:15.147Z,49.85
2018-12-29T08:04:15.140Z,50.52
2018-12-29T08:05:15.106Z,50.14
2018-12-29T08:06:15.088Z,50.33
2018-12-29T08:07:15.066Z,50.42
2018-12-29T08:08:15.048Z,51.28
2018-12-29T08:09:15.033Z,51.65
2018-12-29T08:10:15.013Z,52.22
2018-12-29T08:11:14.999Z,53.45
2018-12-29T08:12:14.984Z,53.26
2018-12-29T08:13:14.960Z,52.98
2018-12-29T08:14:14.942Z,54.21
2018-12-29T08:15:14.922Z,55.15
2018-12-29T08:16:14.904Z,56.95
2018-12-29T08:17:14.887Z,58.18
2018-12-29T08:18:14.874Z,58.84
2018-12-29T08:19:14.605Z,60.55
2018-12-29T08:20:14.837Z,61.49
2018-12-29T08:21:14.819Z,62.82
2018-12-29T08:22:14.804Z,61.96
2018-12-29T08:23:14.782Z,61.21
2018-12-29T08:24:14.760Z,61.58
2018-12-29T08:25:14.744Z,60.45
2018-12-29T08:26:14.730Z,60.64
2018-12-29T08:27:14.706Z,60.64
2018-12-29T08:28:14.764Z,60.64
2018-12-29T08:29:14.674Z,60.36
2018-12-29T08:30:14.654Z,59.79
2018-12-29T08:31:14.639Z,59.79
2018-12-29T08:32:14.618Z,58.84
2018-12-29T08:33:14.349Z,57.9
2018-12-29T08:34:14.581Z,58.09
2018-12-29T08:35:14.563Z,57.52
2018-12-29T08:36:14.549Z,58.28
2018-12-29T08:37:14.525Z,57.61
2018-12-29T08:38:14.510Z,57.8
2018-12-29T08:39:14.491Z,57.8
2018-12-29T08:40:14.472Z,57.23
2018-12-29T08:41:14.455Z,57.14
2018-12-29T08:42:14.434Z,56.1
2018-12-29T08:43:14.418Z,56.1
2018-12-29T08:44:14.413Z,55.91
2018-12-29T08:45:14.380Z,55.82
2018-12-29T08:46:14.361Z,55.82
2018-12-29T08:47:14.347Z,55.91
2018-12-29T08:48:14.322Z,56.38
2018-12-29T08:49:14.309Z,56.01
2018-12-29T08:50:15.810Z,56.48
2018-12-29T08:51:14.268Z,56.67
2018-12-29T08:52:14.260Z,57.33
2018-12-29T08:53:14.236Z,57.9
2018-12-29T08:54:14.219Z,58.94
2018-12-29T08:55:14.206Z,58.84
2018-12-29T08:56:14.262Z,58.65
2018-12-29T08:57:13.915Z,58.56
2018-12-29T08:58:14.146Z,58.56
2018-12-29T08:59:14.128Z,58.37
2018-12-29T09:00:14.108Z,58.28
2018-12-29T09:01:14.096Z,57.71
2018-12-29T09:02:14.077Z,58.65
2018-12-29T09:03:14.053Z,58.65
2018-12-29T09:04:14.034Z,58.37
2018-12-29T09:05:14.017Z,58.94
2018-12-29T09:06:14.003Z,59.79
2018-12-29T09:07:13.981Z,58.94
2018-12-29T09:08:13.960Z,58.56
2018-12-29T09:09:13.951Z,58.94
2018-12-29T09:10:13.926Z,58.84
2018-12-29T09:11:13.910Z,59.5
2018-12-29T09:12:13.892Z,59.69
2018-12-29T09:13:13.877Z,60.64
2018-12-29T09:14:13.857Z,60.55
2018-12-29T09:15:13.586Z,61.02
2018-12-29T09:16:13.824Z,60.93
2018-12-29T09:17:14.819Z,60.64
2018-12-29T09:18:13.785Z,61.3
2018-12-29T09:19:13.762Z,61.49
2018-12-29T09:20:13.746Z,62.25
2018-12-29T09:21:13.731Z,62.25
2018-12-29T09:22:13.722Z,61.4
2018-12-29T09:23:13.694Z,60.55
2018-12-29T09:24:13.676Z,60.26
2018-12-29T09:25:13.655Z,60.64
2018-12-29T09:26:13.708Z,60.64
2018-12-29T09:27:13.626Z,61.3
2018-12-29T09:28:13.610Z,61.4
2018-12-29T09:29:13.583Z,62.06
2018-12-29T09:30:13.568Z,62.53
2018-12-29T09:31:13.550Z,62.34
2018-12-29T09:32:13.528Z,63.39
2018-12-29T09:33:13.514Z,64.33
2018-12-29T09:34:13.494Z,63.67
2018-12-29T09:35:13.475Z,62.91
2018-12-29T09:36:13.457Z,62.06
2018-12-29T09:37:13.440Z,62.72
2018-12-29T09:38:13.425Z,63.95
2018-12-29T09:39:13.405Z,65.09
2018-12-29T09:40:13.391Z,64.9
2018-12-29T09:41:13.118Z,64.52
2018-12-29T09:42:13.350Z,64.14
2018-12-29T09:43:13.330Z,63.57
2018-12-29T09:44:13.317Z,62.91
2018-12-29T09:45:13.293Z,62.63
2018-12-29T09:46:13.029Z,61.96
2018-12-29T09:47:19.517Z,60.93
2018-12-29T09:48:13.243Z,60.45
2018-12-29T09:49:13.221Z,60.74
2018-12-29T09:50:12.956Z,60.17
2018-12-29T09:51:13.185Z,60.64
2018-12-29T09:52:13.168Z,61.11
2018-12-29T09:53:13.149Z,60.64
2018-12-29T09:54:13.133Z,59.69
2018-12-29T09:55:13.113Z,58.65
2018-12-29T09:56:13.098Z,58.37
2018-12-29T09:57:13.076Z,58.47
2018-12-29T09:58:13.062Z,58.47
2018-12-29T09:59:13.044Z,58.75
2018-12-29T10:00:13.030Z,58.37
2018-12-29T10:01:13.006Z,57.99
2018-12-29T10:02:12.990Z,57.99
2018-12-29T10:03:12.971Z,56.95
2018-12-29T10:04:12.705Z,56.67
2018-12-29T10:05:12.941Z,56.76
2018-12-29T10:06:12.935Z,57.04
2018-12-29T10:07:12.899Z,56.29
2018-12-29T10:08:12.885Z,55.63
2018-12-29T10:09:12.866Z,54.77
2018-12-29T10:10:12.850Z,55.44
2018-12-29T10:11:12.828Z,56.1
2018-12-29T10:12:12.810Z,57.23
2018-12-29T10:13:12.795Z,59.12
2018-12-29T10:14:12.776Z,61.02
2018-12-29T10:15:12.756Z,62.44
2018-12-29T10:16:12.746Z,61.49
2018-12-29T10:17:12.726Z,61.68
2018-12-29T10:18:12.712Z,62.44
2018-12-29T10:19:12.688Z,62.53
2018-12-29T10:20:12.666Z,63.48
2018-12-29T10:21:12.648Z,63.48
2018-12-29T10:22:12.631Z,62.63
2018-12-29T10:23:12.390Z,61.58
2018-12-29T10:24:12.601Z,61.77
2018-12-29T10:25:12.579Z,62.25
2018-12-29T10:26:12.564Z,62.72
2018-12-29T10:27:12.548Z,62.44
2018-12-29T10:28:12.788Z,62.34
2018-12-29T10:29:12.510Z,62.72
2018-12-29T10:30:12.495Z,63.29
2018-12-29T10:31:12.476Z,62.44
2018-12-29T10:32:12.458Z,62.82
2018-12-29T10:33:12.442Z,63.57
2018-12-29T10:34:12.426Z,64.33
2018-12-29T10:35:12.404Z,64.52
2018-12-29T10:36:12.388Z,64.9
2018-12-29T10:37:12.371Z,65.37
2018-12-29T10:38:12.350Z,65.56
2018-12-29T10:39:12.337Z,65.47
2018-12-29T10:40:12.314Z,65.56
2018-12-29T10:41:12.301Z,65.31
2018-12-29T10:42:12.283Z,65.5
2018-12-29T10:43:12.265Z,66.98
2018-12-29T10:44:12.248Z,66.88
2018-12-29T10:45:12.227Z,68.87
2018-12-29T10:46:12.207Z,69.66
2018-12-29T10:47:12.190Z,69.53
2018-12-29T10:48:12.177Z,68.3
2018-12-29T10:49:11.908Z,67.74
2018-12-29T10:50:12.139Z,68.96
2018-12-29T10:51:12.177Z,69.72
2018-12-29T10:52:12.100Z,70.01
2018-12-29T10:53:12.088Z,72.66
2018-12-29T10:54:12.068Z,73.79
2018-12-29T10:55:12.050Z,73.03
2018-12-29T10:56:12.036Z,73.03
2018-12-29T10:57:12.017Z,72.85
2018-12-29T10:58:12.006Z,73.5
2018-12-29T10:59:11.985Z,74.26
2018-12-29T11:00:12.537Z,73.13
2018-12-29T11:01:11.947Z,72.28
2018-12-29T11:02:11.680Z,71.71
2018-12-29T11:03:11.907Z,72.18
2018-12-29T11:04:11.978Z,71.23
2018-12-29T11:05:11.874Z,70.67
2018-12-29T11:06:11.856Z,69.72
2018-12-29T11:07:11.658Z,69.91
2018-12-29T11:08:11.829Z,69.63
2018-12-29T11:09:11.807Z,70.2
2018-12-29T11:10:11.786Z,70.76
2018-12-29T11:11:11.776Z,70.86
2018-12-29T11:12:11.755Z,70.2
2018-12-29T11:13:11.733Z,70.39
2018-12-29T11:14:11.718Z,69.53
2018-12-29T11:15:11.702Z,70.2
2018-12-29T11:16:11.680Z,71.71
2018-12-29T11:17:11.674Z,72.18
2018-12-29T11:18:11.732Z,73.98
2018-12-29T11:19:11.629Z,74.07
2018-12-29T11:20:11.616Z,73.6
2018-12-29T11:21:11.604Z,73.5
2018-12-29T11:22:11.577Z,74.74
2018-12-29T11:23:11.561Z,75.12
2018-12-29T11:24:11.559Z,75.68
2018-12-29T11:25:11.529Z,76.44
2018-12-29T11:26:11.512Z,76.25
2018-12-29T11:27:11.491Z,75.78
2018-12-29T11:28:11.468Z,75.68
2018-12-29T11:29:11.455Z,74.45
2018-12-29T11:30:11.435Z,73.88
2018-12-29T11:31:11.472Z,72.85
2018-12-29T11:32:11.406Z,71.42
2018-12-29T11:33:11.383Z,70.39
2018-12-29T11:34:11.369Z,69.34
2018-12-29T11:35:11.350Z,69.44
2018-12-29T11:36:11.332Z,68.96
2018-12-29T11:37:11.314Z,67.74
2018-12-29T11:38:11.295Z,66.88
2018-12-29T11:39:11.279Z,66.25
2018-12-29T11:40:11.268Z,64.55
2018-12-29T11:41:11.243Z,62.18
2018-12-29T11:42:11.229Z,59.91
2018-12-29T11:43:11.206Z,60.86
2018-12-29T11:44:11.200Z,62.18
2018-12-29T11:45:11.174Z,63.23
2018-12-29T11:46:11.153Z,65.02
2018-12-29T11:47:11.138Z,66.25
2018-12-29T11:48:11.127Z,68.62
2018-12-29T11:49:17.814Z,69.95
2018-12-29T11:50:11.164Z,70.42
2018-12-29T11:51:11.111Z,70.51
2018-12-29T11:52:11.359Z,71.74
2018-12-29T11:53:11.052Z,71.36
2018-12-29T11:54:11.030Z,72.41
2018-12-29T11:55:11.026Z,72.97
2018-12-29T11:56:10.997Z,77.61
2018-12-29T11:57:10.980Z,80.36
2018-12-29T11:58:10.709Z,80.83
2018-12-29T11:59:10.940Z,80.36
2018-12-29T12:00:10.676Z,80.17
2018-12-29T12:01:11.157Z,80.17
2018-12-29T12:02:10.890Z,81.02
2018-12-29T12:03:10.950Z,82.72
2018-12-29T12:04:10.854Z,82.91
2018-12-29T12:05:10.846Z,83.01
2018-12-29T12:06:10.832Z,81.4
2018-12-29T12:07:10.803Z,80.83
2018-12-29T12:08:10.853Z,81.68
2018-12-29T12:09:10.768Z,80.74
2018-12-29T12:10:11.042Z,81.68
2018-12-29T12:11:10.734Z,83.01
2018-12-29T12:12:10.469Z,83.39
2018-12-29T12:13:10.712Z,83.1
2018-12-29T12:14:10.700Z,81.96
2018-12-29T12:15:10.676Z,80.45
2018-12-29T12:16:10.651Z,85.09
2018-12-29T12:17:10.674Z,86.98
2018-12-29T12:18:10.624Z,86.13
2018-12-29T12:19:10.857Z,84.05
2018-12-29T12:20:10.583Z,83.76
2018-12-29T12:21:10.316Z,82.06
2018-12-29T12:22:10.547Z,82.06
2018-12-29T12:23:10.529Z,80.64
2018-12-29T12:24:10.525Z,81.59
2018-12-29T12:25:10.495Z,84.71
2018-12-29T12:26:10.484Z,83.76
2018-12-29T12:27:10.689Z,81.59
2018-12-29T12:28:10.547Z,82.06
2018-12-29T12:29:10.739Z,80.74
2018-12-29T12:30:10.413Z,80.45
2018-12-29T12:31:10.401Z,79.03
2018-12-29T12:32:10.182Z,79.32
2018-12-29T12:33:10.360Z,78.75
2018-12-29T12:34:10.668Z,79.41
2018-12-29T12:35:10.327Z,79.03
2018-12-29T12:36:10.323Z,79.79
2018-12-29T12:37:10.301Z,80.74
2018-12-29T12:38:10.274Z,81.02
2018-12-29T12:39:10.513Z,79.98
2018-12-29T12:40:10.247Z,79.03
2018-12-29T12:41:10.219Z,80.07
2018-12-29T12:42:10.208Z,83.29
2018-12-29T12:43:10.596Z,84.42
2018-12-29T12:44:10.172Z,83.76
2018-12-29T12:45:10.163Z,83.29
2018-12-29T12:46:10.135Z,82.53
2018-12-29T12:47:10.122Z,81.77
2018-12-29T12:48:10.101Z,80.74
2018-12-29T12:49:10.086Z,79.22
2018-12-29T12:50:10.383Z,79.6
2018-12-29T12:51:09.807Z,79.6
2018-12-29T12:52:10.039Z,79.41
2018-12-29T12:53:10.369Z,80.26
2018-12-29T12:54:10.011Z,82.25
2018-12-29T12:55:09.974Z,83.01